createdAt,value
2019-03-22T00:01:07.346Z,9.18
2019-03-22T00:03:35.863Z,7.22
2019-03-22T00:06:04.555Z,8.70
2019-03-22T00:08:33.866Z,9.03
2019-03-22T00:11:02.797Z,7.47
2019-03-22T00:13:31.542Z,8.53
2019-03-22T00:16:00.542Z,8.68
2019-03-22T00:18:28.912Z,8.88
2019-03-22T00:20:57.962Z,8.43
2019-03-22T00:23:26.599Z,9.10
2019-03-22T00:25:55.043Z,9.55
2019-03-22T00:28:23.599Z,10.55
2019-03-22T00:30:52.360Z,8.30
2019-03-22T00:33:21.259Z,7.85
2019-03-22T00:35:50.317Z,8.80
2019-03-22T00:38:19.300Z,7.47
2019-03-22T00:40:47.865Z,7.75
2019-03-22T00:43:16.769Z,8.08
2019-03-22T00:45:45.354Z,7.17
2019-03-22T00:48:14.627Z,7.53
2019-03-22T00:50:43.224Z,7.15
2019-03-22T00:53:11.390Z,7.78
2019-03-22T00:55:39.877Z,7.53
2019-03-22T00:58:08.616Z,6.35
2019-03-22T01:00:38.606Z,7.03
2019-03-22T01:03:07.203Z,7.53
2019-03-22T01:05:36.255Z,8.35
2019-03-22T01:08:05.175Z,7.33
2019-03-22T01:10:34.060Z,8.08
2019-03-22T01:13:02.920Z,9.45
2019-03-22T01:15:31.609Z,8.00
2019-03-22T01:18:00.815Z,10.65
2019-03-22T01:20:29.795Z,7.20
2019-03-22T01:22:58.122Z,8.43
2019-03-22T01:25:27.430Z,6.95
2019-03-22T01:27:56.764Z,6.90
2019-03-22T01:30:25.903Z,6.87
2019-03-22T01:32:54.748Z,6.22
2019-03-22T01:35:23.359Z,7.25
2019-03-22T01:37:51.932Z,6.62
2019-03-22T01:40:20.593Z,6.78
2019-03-22T01:42:49.773Z,7.50
2019-03-22T01:45:18.161Z,7.37
2019-03-22T01:47:47.906Z,8.00
2019-03-22T01:50:16.843Z,7.78
2019-03-22T01:52:45.607Z,8.70
2019-03-22T01:55:14.264Z,7.60
2019-03-22T01:57:52.491Z,9.00
2019-03-22T02:00:14.047Z,6.50
2019-03-22T02:02:42.629Z,7.97
2019-03-22T02:05:11.843Z,5.92
2019-03-22T02:07:40.675Z,7.28
2019-03-22T02:10:09.844Z,6.75
2019-03-22T02:12:38.510Z,6.30
2019-03-22T02:15:09.516Z,6.40
2019-03-22T02:17:38.187Z,6.35
2019-03-22T02:20:07.222Z,6.75
2019-03-22T02:22:36.201Z,6.42
2019-03-22T02:25:06.060Z,7.12
2019-03-22T02:28:03.470Z,7.22
2019-03-22T02:30:23.342Z,6.72
2019-03-22T02:32:51.824Z,6.53
2019-03-22T02:35:28.802Z,6.33
2019-03-22T02:37:50.750Z,6.30
2019-03-22T02:40:20.045Z,6.30
2019-03-22T02:42:48.362Z,6.15
2019-03-22T02:45:17.107Z,6.30
2019-03-22T02:47:47.463Z,5.97
2019-03-22T02:50:19.203Z,7.00
2019-03-22T02:52:46.945Z,6.87
2019-03-22T02:55:15.163Z,7.85
2019-03-22T02:57:45.541Z,7.22
2019-03-22T03:00:13.733Z,7.80
2019-03-22T03:02:42.394Z,6.60
2019-03-22T03:05:11.083Z,6.92
2019-03-22T03:07:39.564Z,8.58
2019-03-22T03:10:08.993Z,7.05
2019-03-22T03:12:37.984Z,6.92
2019-03-22T03:15:08.346Z,6.75
2019-03-22T03:17:36.785Z,6.70
2019-03-22T03:20:07.065Z,6.20
2019-03-22T03:22:35.705Z,5.97
2019-03-22T03:25:05.645Z,6.28
2019-03-22T03:27:34.577Z,6.00
2019-03-22T03:30:04.097Z,7.12
2019-03-22T03:32:32.220Z,6.42
2019-03-22T03:35:01.237Z,6.50
2019-03-22T03:37:30.424Z,7.10
2019-03-22T03:39:58.988Z,6.67
2019-03-22T03:42:28.918Z,7.75
2019-03-22T03:44:59.083Z,7.35
2019-03-22T03:47:28.148Z,6.97
2019-03-22T03:49:57.533Z,6.25
2019-03-22T03:52:26.697Z,5.78
2019-03-22T03:54:54.954Z,6.78
2019-03-22T03:57:23.795Z,7.25
2019-03-22T03:59:52.367Z,7.28
2019-03-22T04:02:21.680Z,6.58
2019-03-22T04:04:50.970Z,6.50
2019-03-22T04:07:22.033Z,6.40
2019-03-22T04:09:50.509Z,8.08
2019-03-22T04:12:19.177Z,7.10
2019-03-22T04:14:47.882Z,8.58
2019-03-22T04:17:16.469Z,6.65
2019-03-22T04:19:45.242Z,6.83
2019-03-22T04:22:15.416Z,6.37
2019-03-22T04:24:44.743Z,6.20
2019-03-22T04:27:13.635Z,7.20
2019-03-22T04:29:42.798Z,6.62
2019-03-22T04:32:14.072Z,5.92
2019-03-22T04:34:42.870Z,6.42
2019-03-22T04:37:11.220Z,7.30
2019-03-22T04:39:40.040Z,6.00
2019-03-22T04:42:08.300Z,5.95
2019-03-22T04:44:36.507Z,7.33
2019-03-22T04:47:05.351Z,7.72
2019-03-22T04:49:34.235Z,7.42
2019-03-22T04:52:02.939Z,8.03
2019-03-22T04:54:31.536Z,7.72
2019-03-22T04:57:00.576Z,7.33
2019-03-22T04:59:29.124Z,8.50
2019-03-22T05:01:57.308Z,7.55
2019-03-22T05:04:26.456Z,7.35
2019-03-22T05:06:54.920Z,6.47
2019-03-22T05:09:24.397Z,6.22
2019-03-22T05:11:52.873Z,6.70
2019-03-22T05:14:21.277Z,6.28
2019-03-22T05:16:50.217Z,7.20
2019-03-22T05:19:19.058Z,6.10
2019-03-22T05:21:47.751Z,7.30
2019-03-22T05:24:18.347Z,6.72
2019-03-22T05:26:46.745Z,6.12
2019-03-22T05:29:15.478Z,7.08
2019-03-22T05:32:16.146Z,6.37
2019-03-22T05:34:45.103Z,6.95
2019-03-22T05:37:14.060Z,6.75
2019-03-22T05:39:42.622Z,6.22
2019-03-22T05:42:11.321Z,5.58
2019-03-22T05:44:40.336Z,11.90
2019-03-22T05:47:09.072Z,8.50
2019-03-22T05:49:38.574Z,7.75
2019-03-22T05:52:06.845Z,7.60
2019-03-22T05:54:35.835Z,6.12
2019-03-22T05:57:13.403Z,6.87
2019-03-22T05:59:42.460Z,7.10
2019-03-22T06:02:07.659Z,6.95
2019-03-22T06:04:36.080Z,8.23
2019-03-22T06:07:04.581Z,8.27
2019-03-22T06:09:33.070Z,6.67
2019-03-22T06:12:01.987Z,7.17
2019-03-22T06:14:30.452Z,6.35
2019-03-22T06:16:58.913Z,6.67
2019-03-22T06:19:28.183Z,7.15
2019-03-22T06:21:57.237Z,5.97
2019-03-22T06:24:26.232Z,6.35
2019-03-22T06:26:54.803Z,6.60
2019-03-22T06:29:25.127Z,6.72
2019-03-22T06:31:54.586Z,7.12
2019-03-22T06:34:23.414Z,6.08
2019-03-22T06:36:52.035Z,8.30
2019-03-22T06:39:20.302Z,7.58
2019-03-22T06:41:49.159Z,7.42
2019-03-22T06:44:17.793Z,13.50
2019-03-22T06:46:46.063Z,28.47
2019-03-22T06:49:14.455Z,14.07
2019-03-22T06:51:42.984Z,20.00
2019-03-22T06:54:12.093Z,13.50
2019-03-22T06:56:40.234Z,13.40
2019-03-22T06:59:08.938Z,16.07
2019-03-22T07:01:37.596Z,9.55
2019-03-22T07:04:06.958Z,10.63
2019-03-22T07:06:35.460Z,16.12
2019-03-22T07:09:08.270Z,11.78
2019-03-22T07:11:38.013Z,10.28
2019-03-22T07:14:07.837Z,12.35
2019-03-22T07:16:36.834Z,13.93
2019-03-22T07:19:06.165Z,10.98
2019-03-22T07:21:35.596Z,11.53
2019-03-22T07:24:04.091Z,10.88
2019-03-22T07:26:33.398Z,12.43
2019-03-22T07:29:02.225Z,9.18
2019-03-22T07:31:30.582Z,11.70
2019-03-22T07:33:59.691Z,11.70
2019-03-22T07:36:28.326Z,9.75
2019-03-22T07:38:56.778Z,12.40
2019-03-22T07:41:25.434Z,11.30
2019-03-22T07:43:55.075Z,10.82
2019-03-22T07:46:24.531Z,10.30
2019-03-22T07:48:53.108Z,8.83
2019-03-22T07:51:21.737Z,11.57
2019-03-22T07:53:51.141Z,11.00
2019-03-22T07:56:20.219Z,10.30
2019-03-22T07:58:49.551Z,12.70
2019-03-22T08:01:18.745Z,10.82
2019-03-22T08:03:47.433Z,13.40
2019-03-22T08:06:16.102Z,13.15
2019-03-22T08:08:44.477Z,13.70
2019-03-22T08:11:12.949Z,9.48
2019-03-22T08:13:41.601Z,11.88
2019-03-22T08:16:11.187Z,10.75
2019-03-22T08:18:40.131Z,12.05
2019-03-22T08:21:08.849Z,9.10
2019-03-22T08:23:37.597Z,10.28
2019-03-22T08:26:09.757Z,9.50
2019-03-22T08:28:38.953Z,16.00
2019-03-22T08:31:08.359Z,11.20
2019-03-22T08:33:37.190Z,14.70
2019-03-22T08:36:05.823Z,12.33
2019-03-22T08:38:34.951Z,10.88
2019-03-22T08:41:04.468Z,11.30
2019-03-22T08:43:32.992Z,9.55
2019-03-22T08:46:01.544Z,7.78
2019-03-22T08:48:30.073Z,8.58
2019-03-22T08:50:58.544Z,8.20
2019-03-22T08:53:27.039Z,8.13
2019-03-22T08:55:55.615Z,10.68
2019-03-22T08:58:23.884Z,9.05
2019-03-22T09:00:57.829Z,8.80
2019-03-22T09:03:22.987Z,8.20
2019-03-22T09:05:51.543Z,11.48
2019-03-22T09:08:21.122Z,6.30
2019-03-22T09:10:49.678Z,9.60
2019-03-22T09:13:18.649Z,9.28
2019-03-22T09:15:47.941Z,9.73
2019-03-22T09:18:16.701Z,7.17
2019-03-22T09:20:45.505Z,10.85
2019-03-22T09:23:13.856Z,8.15
2019-03-22T09:25:42.904Z,8.90
2019-03-22T09:28:11.090Z,6.10
2019-03-22T09:30:39.664Z,7.08
2019-03-22T09:33:09.919Z,7.25
2019-03-22T09:35:38.270Z,7.37
2019-03-22T09:38:12.878Z,8.00
2019-03-22T09:40:37.882Z,6.65
2019-03-22T09:43:06.787Z,7.35
2019-03-22T09:45:35.417Z,8.25
2019-03-22T09:48:06.106Z,7.75
2019-03-22T09:50:34.999Z,8.03
2019-03-22T09:53:03.361Z,7.80
2019-03-22T09:55:31.844Z,7.22
2019-03-22T09:58:00.618Z,8.53
2019-03-22T10:00:31.820Z,7.62
2019-03-22T10:03:01.275Z,11.10
2019-03-22T10:05:29.937Z,10.95
2019-03-22T10:08:00.132Z,10.72
2019-03-22T10:10:29.239Z,8.08
2019-03-22T10:12:58.633Z,7.70
2019-03-22T10:15:28.043Z,9.08
2019-03-22T10:17:57.139Z,7.35
2019-03-22T10:20:25.500Z,8.58
2019-03-22T10:22:54.327Z,7.15
2019-03-22T10:25:24.081Z,6.60
2019-03-22T10:27:52.593Z,6.85
2019-03-22T10:30:21.134Z,6.30
2019-03-22T10:32:50.526Z,11.83
2019-03-22T10:35:26.116Z,8.18
2019-03-22T10:37:49.979Z,7.05
2019-03-22T10:40:18.215Z,9.80
2019-03-22T10:42:46.826Z,7.00
2019-03-22T10:45:15.840Z,6.30
2019-03-22T10:47:44.657Z,5.28
2019-03-22T10:50:13.700Z,7.35
2019-03-22T10:52:42.480Z,7.22
2019-03-22T10:55:28.333Z,5.60
2019-03-22T10:57:43.440Z,5.92
2019-03-22T11:00:15.644Z,5.12
2019-03-22T11:02:44.689Z,5.35
2019-03-22T11:05:13.144Z,6.17
2019-03-22T11:07:41.945Z,6.47
2019-03-22T11:10:13.556Z,8.95
2019-03-22T11:12:42.041Z,6.30
2019-03-22T11:15:10.431Z,6.25
2019-03-22T11:17:39.048Z,5.95
2019-03-22T11:20:10.277Z,6.78
2019-03-22T11:22:39.370Z,7.65
2019-03-22T11:25:08.290Z,7.10
2019-03-22T11:27:36.970Z,5.72
2019-03-22T11:30:08.178Z,6.87
2019-03-22T11:32:37.397Z,5.80
2019-03-22T11:35:06.894Z,6.30
2019-03-22T11:37:36.766Z,4.80
2019-03-22T11:40:08.375Z,4.20
2019-03-22T11:42:37.493Z,6.60
2019-03-22T11:45:07.258Z,6.00
2019-03-22T11:47:35.958Z,5.22
2019-03-22T11:50:05.956Z,8.20
2019-03-22T11:52:34.587Z,10.75
2019-03-22T11:55:04.031Z,6.30
2019-03-22T11:57:32.410Z,10.15
2019-03-22T12:00:00.701Z,7.50
2019-03-22T12:02:29.792Z,9.23
2019-03-22T12:04:58.788Z,5.90
2019-03-22T12:07:27.693Z,8.50
2019-03-22T12:09:58.728Z,6.28
2019-03-22T12:12:27.763Z,9.15
2019-03-22T12:14:56.409Z,6.08
2019-03-22T12:17:24.832Z,9.38
2019-03-22T12:19:53.347Z,7.62
2019-03-22T12:22:21.549Z,6.67
2019-03-22T12:24:50.662Z,5.75
2019-03-22T12:27:20.725Z,7.62
2019-03-22T12:29:48.977Z,8.65
2019-03-22T12:32:17.487Z,6.47
2019-03-22T12:34:45.967Z,7.72
2019-03-22T12:37:15.051Z,8.58
2019-03-22T12:39:44.955Z,6.22
2019-03-22T12:42:13.743Z,5.47
2019-03-22T12:44:42.387Z,9.03
2019-03-22T12:47:11.354Z,6.22
2019-03-22T12:49:40.184Z,4.42
2019-03-22T12:52:09.099Z,8.35
2019-03-22T12:54:37.979Z,4.03
2019-03-22T12:57:06.762Z,5.95
2019-03-22T12:59:35.556Z,6.60
2019-03-22T13:02:04.588Z,5.17
2019-03-22T13:04:33.440Z,6.00
2019-03-22T13:07:02.336Z,5.90
2019-03-22T13:09:30.748Z,6.78
2019-03-22T13:11:59.953Z,5.90
2019-03-22T13:14:29.293Z,5.28
2019-03-22T13:16:58.309Z,7.50
2019-03-22T13:19:27.881Z,4.92
2019-03-22T13:21:56.338Z,5.95
2019-03-22T13:24:25.913Z,5.62
2019-03-22T13:26:55.309Z,6.92
2019-03-22T13:29:24.353Z,4.20
2019-03-22T13:31:53.782Z,4.42
2019-03-22T13:34:22.350Z,5.67
2019-03-22T13:36:52.003Z,4.45
2019-03-22T13:39:20.840Z,6.37
2019-03-22T13:41:49.496Z,5.83
2019-03-22T13:44:18.132Z,7.42
2019-03-22T13:46:46.607Z,6.50
2019-03-22T13:49:14.899Z,8.60
2019-03-22T13:51:43.269Z,7.90
2019-03-22T13:54:12.534Z,7.28
2019-03-22T13:56:41.957Z,6.55
2019-03-22T13:59:11.340Z,6.17
2019-03-22T14:01:40.130Z,5.90
2019-03-22T14:04:08.713Z,6.45
2019-03-22T14:06:38.254Z,5.50
2019-03-22T14:09:08.376Z,6.10
2019-03-22T14:11:37.185Z,6.37
2019-03-22T14:14:05.493Z,5.53
2019-03-22T14:16:34.704Z,4.63
2019-03-22T14:19:03.709Z,9.80
2019-03-22T14:21:32.562Z,5.70
2019-03-22T14:24:02.035Z,7.53
2019-03-22T14:26:30.726Z,7.65
2019-03-22T14:28:59.394Z,6.67
2019-03-22T14:31:28.536Z,6.90
2019-03-22T14:33:57.094Z,11.63
2019-03-22T14:36:25.717Z,4.73
2019-03-22T14:38:54.491Z,6.05
2019-03-22T14:41:24.738Z,7.27
2019-03-22T14:43:53.111Z,4.62
2019-03-22T14:46:22.715Z,8.13
2019-03-22T14:48:51.212Z,9.63
2019-03-22T14:51:22.492Z,10.70
2019-03-22T14:53:51.573Z,8.05
2019-03-22T14:56:19.831Z,17.27
2019-03-22T14:58:49.392Z,11.03
2019-03-22T15:01:18.977Z,7.53
2019-03-22T15:03:47.540Z,7.80
2019-03-22T15:06:16.354Z,8.10
2019-03-22T15:08:44.721Z,5.97
2019-03-22T15:11:13.216Z,7.15
2019-03-22T15:13:48.684Z,6.10
2019-03-22T15:16:27.873Z,8.40
2019-03-22T15:19:31.493Z,6.22
2019-03-22T15:22:14.365Z,6.33
2019-03-22T15:25:02.772Z,10.43
2019-03-22T15:28:05.742Z,9.00
2019-03-22T15:30:56.721Z,3.80
2019-03-22T15:33:37.527Z,11.27
2019-03-22T15:36:24.823Z,6.20
2019-03-22T15:39:16.057Z,10.05
2019-03-22T15:41:45.656Z,6.70
2019-03-22T15:44:14.202Z,11.68
2019-03-22T15:46:42.879Z,7.65
2019-03-22T15:49:12.059Z,7.67
2019-03-22T15:51:41.603Z,8.05
2019-03-22T15:54:10.104Z,7.83
2019-03-22T15:56:39.011Z,11.63
2019-03-22T15:59:07.953Z,10.68
2019-03-22T16:01:37.143Z,10.80
2019-03-22T16:04:07.280Z,11.37
2019-03-22T16:06:36.385Z,8.20
2019-03-22T16:09:07.381Z,10.17
2019-03-22T16:11:36.615Z,11.13
2019-03-22T16:14:05.470Z,8.80
2019-03-22T16:16:34.183Z,8.47
2019-03-22T16:19:03.614Z,7.70
2019-03-22T16:21:32.447Z,6.67
2019-03-22T16:24:01.001Z,7.03
2019-03-22T16:26:29.563Z,5.83
2019-03-22T16:28:58.262Z,4.97
2019-03-22T16:31:26.742Z,7.13
2019-03-22T16:33:55.435Z,8.43
2019-03-22T16:36:40.670Z,6.00
2019-03-22T16:39:08.869Z,4.55
2019-03-22T16:41:37.285Z,6.33
2019-03-22T16:44:05.399Z,4.95
2019-03-22T16:46:33.455Z,5.17
2019-03-22T16:49:01.393Z,8.48
2019-03-22T16:51:31.448Z,5.53
2019-03-22T16:54:00.679Z,6.10
2019-03-22T16:56:28.642Z,3.50
2019-03-22T16:58:56.902Z,7.35
2019-03-22T17:01:25.083Z,8.17
2019-03-22T17:03:53.391Z,4.67
2019-03-22T17:06:22.440Z,4.10
2019-03-22T17:08:50.978Z,6.95
2019-03-22T17:11:19.705Z,6.50
2019-03-22T17:13:48.182Z,13.48
2019-03-22T17:16:16.089Z,26.60
2019-03-22T17:18:44.480Z,34.43
2019-03-22T17:21:12.603Z,35.95
2019-03-22T17:23:40.962Z,33.55
2019-03-22T17:26:09.555Z,38.00
2019-03-22T17:29:25.863Z,55.40
2019-03-22T17:31:54.103Z,59.97
2019-03-22T17:34:22.130Z,66.00
2019-03-22T17:36:50.344Z,70.20
2019-03-22T17:39:18.494Z,66.47
2019-03-22T17:41:47.491Z,67.65
2019-03-22T17:44:15.654Z,58.87
2019-03-22T17:46:44.214Z,59.33
2019-03-22T17:49:12.225Z,47.70
2019-03-22T17:51:40.547Z,47.60
2019-03-22T17:54:09.297Z,38.33
2019-03-22T17:56:38.456Z,37.20
2019-03-22T17:59:07.120Z,30.43
2019-03-22T18:01:35.891Z,25.70
2019-03-22T18:04:04.977Z,27.13
2019-03-22T18:06:33.774Z,29.30
2019-03-22T18:09:05.133Z,24.80
2019-03-22T18:11:34.091Z,28.30
2019-03-22T18:14:02.945Z,27.50
2019-03-22T18:16:32.074Z,24.07
2019-03-22T18:19:01.203Z,25.30
2019-03-22T18:21:31.067Z,24.00
2019-03-22T18:23:59.638Z,23.10
2019-03-22T18:26:28.989Z,19.67
2019-03-22T18:28:58.007Z,20.90
2019-03-22T18:31:27.409Z,23.65
2019-03-22T18:33:56.167Z,22.67
2019-03-22T18:36:25.964Z,25.10
2019-03-22T18:38:55.208Z,20.93
2019-03-22T18:41:24.232Z,20.30
2019-03-22T18:43:54.815Z,18.35
2019-03-22T18:46:23.204Z,20.05
2019-03-22T18:48:53.582Z,15.48
2019-03-22T18:51:22.516Z,16.27
2019-03-22T18:53:51.250Z,15.60
2019-03-22T18:56:21.084Z,16.30
2019-03-22T18:58:51.872Z,19.47
2019-03-22T19:01:20.730Z,19.20
2019-03-22T19:03:49.939Z,18.62
2019-03-22T19:06:18.805Z,18.70
2019-03-22T19:08:48.010Z,17.37
2019-03-22T19:11:17.014Z,17.80
2019-03-22T19:13:46.058Z,18.17
2019-03-22T19:16:15.054Z,17.83
2019-03-22T19:18:43.938Z,15.93
2019-03-22T19:21:13.883Z,17.50
2019-03-22T19:23:43.655Z,12.10
2019-03-22T19:26:12.582Z,14.35
2019-03-22T19:28:41.090Z,14.00
2019-03-22T19:31:09.642Z,13.70
2019-03-22T19:33:38.634Z,14.53
2019-03-22T19:36:07.618Z,13.80
2019-03-22T19:38:36.380Z,13.90
2019-03-22T19:41:05.519Z,13.07
2019-03-22T19:43:34.964Z,13.40
2019-03-22T19:46:04.030Z,13.32
2019-03-22T19:48:33.022Z,13.60
2019-03-22T19:51:03.488Z,14.70
2019-03-22T19:53:32.151Z,11.07
2019-03-22T19:56:01.360Z,10.23
2019-03-22T19:58:31.037Z,12.65
2019-03-22T20:01:00.206Z,12.65
2019-03-22T20:03:29.121Z,14.70
2019-03-22T20:05:59.050Z,10.72
2019-03-22T20:08:28.936Z,10.88
2019-03-22T20:10:58.614Z,8.95
2019-03-22T20:13:27.728Z,13.65
2019-03-22T20:15:58.834Z,14.80
2019-03-22T20:18:27.500Z,13.03
2019-03-22T20:20:56.734Z,12.27
2019-03-22T20:23:25.628Z,15.03
2019-03-22T20:25:54.619Z,14.80
2019-03-22T20:28:24.342Z,12.90
2019-03-22T20:30:53.089Z,11.80
2019-03-22T20:33:21.539Z,11.45
2019-03-22T20:35:50.965Z,14.47
2019-03-22T20:38:20.058Z,13.00
2019-03-22T20:40:48.887Z,12.80
2019-03-22T20:43:17.768Z,9.25
2019-03-22T20:45:46.955Z,11.95
2019-03-22T20:48:15.583Z,12.40
2019-03-22T20:50:44.434Z,9.50
2019-03-22T20:53:13.524Z,12.50
2019-03-22T20:55:42.395Z,13.13
2019-03-22T20:58:11.078Z,13.37
2019-03-22T21:00:40.284Z,15.98
2019-03-22T21:03:09.337Z,14.68
2019-03-22T21:05:37.753Z,11.73
2019-03-22T21:08:07.471Z,11.10
2019-03-22T21:10:36.518Z,11.00
2019-03-22T21:13:05.462Z,12.37
2019-03-22T21:15:34.705Z,10.75
2019-03-22T21:18:03.549Z,9.70
2019-03-22T21:20:32.254Z,9.40
2019-03-22T21:23:01.234Z,10.50
2019-03-22T21:25:30.735Z,12.70
2019-03-22T21:28:00.317Z,9.37
2019-03-22T21:30:29.163Z,12.03
2019-03-22T21:32:57.948Z,12.20
2019-03-22T21:35:36.683Z,21.83
2019-03-22T21:37:58.409Z,13.03
2019-03-22T21:40:27.849Z,19.70
2019-03-22T21:42:57.188Z,13.55
2019-03-22T21:45:26.339Z,17.02
2019-03-22T21:47:55.068Z,18.40
2019-03-22T21:50:24.200Z,16.23
2019-03-22T21:52:53.032Z,10.85
2019-03-22T21:55:21.713Z,13.25
2019-03-22T21:57:49.942Z,9.70
2019-03-22T22:00:20.153Z,11.63
2019-03-22T22:02:48.651Z,9.93
2019-03-22T22:05:17.337Z,8.98
2019-03-22T22:07:46.057Z,9.33
2019-03-22T22:10:14.725Z,10.40
2019-03-22T22:12:43.830Z,11.80
2019-03-22T22:15:12.442Z,15.25
2019-03-22T22:17:42.400Z,11.20
2019-03-22T22:20:10.993Z,12.70
2019-03-22T22:22:40.062Z,10.00
2019-03-22T22:25:08.768Z,13.25
2019-03-22T22:27:38.766Z,11.25
2019-03-22T22:30:08.513Z,12.37
2019-03-22T22:32:37.387Z,10.10
2019-03-22T22:35:06.426Z,9.23
2019-03-22T22:37:34.815Z,9.00
2019-03-22T22:40:04.596Z,9.90
2019-03-22T22:42:33.223Z,10.70
2019-03-22T22:45:01.792Z,10.37
2019-03-22T22:47:30.756Z,10.27
2019-03-22T22:49:59.680Z,13.47
2019-03-22T22:52:28.161Z,9.55
2019-03-22T22:54:58.063Z,13.23
2019-03-22T22:57:27.418Z,12.87
2019-03-22T22:59:55.943Z,13.32
2019-03-22T23:02:24.199Z,12.65
2019-03-22T23:04:53.635Z,13.10
2019-03-22T23:07:22.686Z,10.95
2019-03-22T23:09:51.885Z,8.90
2019-03-22T23:12:21.220Z,11.10
2019-03-22T23:14:50.094Z,9.10
2019-03-22T23:17:19.134Z,11.23
2019-03-22T23:19:48.181Z,10.60
2019-03-22T23:22:16.729Z,8.23
2019-03-22T23:24:46.705Z,8.60
2019-03-22T23:27:15.291Z,9.53
2019-03-22T23:29:44.947Z,9.23
2019-03-22T23:32:13.562Z,11.40
2019-03-22T23:34:45.481Z,9.25
2019-03-22T23:37:14.092Z,9.17
2019-03-22T23:39:43.107Z,9.60
2019-03-22T23:42:12.322Z,11.63
2019-03-22T23:44:41.874Z,12.73
2019-03-22T23:47:10.920Z,10.00
2019-03-22T23:49:40.060Z,9.30
2019-03-22T23:52:08.513Z,10.10
2019-03-22T23:54:37.741Z,8.65
2019-03-22T23:57:06.629Z,9.78
2019-03-22T23:59:35.743Z,8.57
